sensor_id;sensor_type;location;lat;lon;timestamp;P1;durP1;ratioP1;P2;durP2;ratioP2
58954;SDS011;45815;52.334;5.024;2024-03-17T00:00:40;10.60;;;3.83;;
58954;SDS011;45815;52.334;5.024;2024-03-17T00:03:06;12.13;;;3.92;;
58954;SDS011;45815;52.334;5.024;2024-03-17T00:05:34;12.20;;;4.28;;
58954;SDS011;45815;52.334;5.024;2024-03-17T00:08:00;14.25;;;4.00;;
58954;SDS011;45815;52.334;5.024;2024-03-17T00:10:25;11.07;;;4.28;;
58954;SDS011;45815;52.334;5.024;2024-03-17T00:12:51;12.77;;;4.25;;
58954;SDS011;45815;52.334;5.024;2024-03-17T00:15:16;10.10;;;3.55;;
58954;SDS011;45815;52.334;5.024;2024-03-17T00:17:42;9.57;;;4.00;;
58954;SDS011;45815;52.334;5.024;2024-03-17T00:20:07;13.23;;;4.32;;
58954;SDS011;45815;52.334;5.024;2024-03-17T00:22:45;9.85;;;4.03;;
58954;SDS011;45815;52.334;5.024;2024-03-17T00:25:12;10.20;;;4.65;;
58954;SDS011;45815;52.334;5.024;2024-03-17T00:27:37;12.23;;;4.25;;
58954;SDS011;45815;52.334;5.024;2024-03-17T00:30:06;9.07;;;4.00;;
58954;SDS011;45815;52.334;5.024;2024-03-17T00:32:40;12.50;;;3.80;;
58954;SDS011;45815;52.334;5.024;2024-03-17T00:35:09;11.57;;;4.40;;
58954;SDS011;45815;52.334;5.024;2024-03-17T00:37:39;12.52;;;4.07;;
58954;SDS011;45815;52.334;5.024;2024-03-17T00:40:04;10.32;;;3.85;;
58954;SDS011;45815;52.334;5.024;2024-03-17T00:42:31;17.65;;;5.20;;
58954;SDS011;45815;52.334;5.024;2024-03-17T00:44:57;11.57;;;4.13;;
58954;SDS011;45815;52.334;5.024;2024-03-17T00:47:25;12.75;;;3.38;;
58954;SDS011;45815;52.334;5.024;2024-03-17T00:49:50;9.68;;;3.40;;
58954;SDS011;45815;52.334;5.024;2024-03-17T00:52:16;10.90;;;3.85;;
58954;SDS011;45815;52.334;5.024;2024-03-17T00:54:42;10.63;;;4.05;;
58954;SDS011;45815;52.334;5.024;2024-03-17T00:57:07;10.68;;;3.88;;
58954;SDS011;45815;52.334;5.024;2024-03-17T00:59:33;10.23;;;3.50;;
58954;SDS011;45815;52.334;5.024;2024-03-17T01:01:58;10.57;;;3.55;;
58954;SDS011;45815;52.334;5.024;2024-03-17T01:04:24;9.48;;;3.72;;
58954;SDS011;45815;52.334;5.024;2024-03-17T01:06:49;9.85;;;3.60;;
58954;SDS011;45815;52.334;5.024;2024-03-17T01:09:14;11.48;;;3.25;;
58954;SDS011;45815;52.334;5.024;2024-03-17T01:11:40;10.27;;;3.42;;
58954;SDS011;45815;52.334;5.024;2024-03-17T01:14:05;11.25;;;4.22;;
58954;SDS011;45815;52.334;5.024;2024-03-17T01:16:32;11.18;;;3.80;;
58954;SDS011;45815;52.334;5.024;2024-03-17T01:18:58;9.77;;;3.72;;
58954;SDS011;45815;52.334;5.024;2024-03-17T01:21:23;10.65;;;4.10;;
58954;SDS011;45815;52.334;5.024;2024-03-17T01:23:49;10.52;;;3.50;;
58954;SDS011;45815;52.334;5.024;2024-03-17T01:26:14;12.82;;;3.97;;
58954;SDS011;45815;52.334;5.024;2024-03-17T01:28:40;10.48;;;3.63;;
58954;SDS011;45815;52.334;5.024;2024-03-17T01:31:06;13.73;;;3.88;;
58954;SDS011;45815;52.334;5.024;2024-03-17T01:33:32;10.35;;;3.60;;
58954;SDS011;45815;52.334;5.024;2024-03-17T01:35:57;11.00;;;3.45;;
58954;SDS011;45815;52.334;5.024;2024-03-17T01:38:22;9.32;;;3.25;;
58954;SDS011;45815;52.334;5.024;2024-03-17T01:40:48;9.10;;;3.30;;
58954;SDS011;45815;52.334;5.024;2024-03-17T01:43:13;8.30;;;3.45;;
58954;SDS011;45815;52.334;5.024;2024-03-17T01:45:39;8.43;;;3.30;;
58954;SDS011;45815;52.334;5.024;2024-03-17T01:48:04;10.98;;;3.95;;
58954;SDS011;45815;52.334;5.024;2024-03-17T01:50:37;11.45;;;3.50;;
58954;SDS011;45815;52.334;5.024;2024-03-17T01:53:04;11.25;;;3.08;;
58954;SDS011;45815;52.334;5.024;2024-03-17T01:55:35;13.60;;;3.78;;
58954;SDS011;45815;52.334;5.024;2024-03-17T01:58:05;9.80;;;3.20;;
58954;SDS011;45815;52.334;5.024;2024-03-17T02:00:37;10.68;;;3.10;;
58954;SDS011;45815;52.334;5.024;2024-03-17T02:03:06;10.15;;;3.33;;
58954;SDS011;45815;52.334;5.024;2024-03-17T02:05:35;12.73;;;3.85;;
58954;SDS011;45815;52.334;5.024;2024-03-17T02:08:03;13.30;;;3.72;;
58954;SDS011;45815;52.334;5.024;2024-03-17T02:10:29;9.30;;;3.22;;
58954;SDS011;45815;52.334;5.024;2024-03-17T02:12:55;9.95;;;3.45;;
58954;SDS011;45815;52.334;5.024;2024-03-17T02:15:20;11.25;;;4.00;;
58954;SDS011;45815;52.334;5.024;2024-03-17T02:17:46;12.73;;;4.32;;
58954;SDS011;45815;52.334;5.024;2024-03-17T02:20:11;11.13;;;4.28;;
58954;SDS011;45815;52.334;5.024;2024-03-17T02:22:37;12.00;;;4.22;;
58954;SDS011;45815;52.334;5.024;2024-03-17T02:25:05;12.00;;;4.10;;
58954;SDS011;45815;52.334;5.024;2024-03-17T02:27:33;11.70;;;4.53;;
58954;SDS011;45815;52.334;5.024;2024-03-17T02:30:00;11.25;;;4.18;;
58954;SDS011;45815;52.334;5.024;2024-03-17T02:32:25;11.27;;;4.22;;
58954;SDS011;45815;52.334;5.024;2024-03-17T02:34:53;14.88;;;4.68;;
58954;SDS011;45815;52.334;5.024;2024-03-17T02:37:18;11.20;;;4.35;;
58954;SDS011;45815;52.334;5.024;2024-03-17T02:39:44;7.55;;;3.58;;
58954;SDS011;45815;52.334;5.024;2024-03-17T02:42:10;10.95;;;4.45;;
58954;SDS011;45815;52.334;5.024;2024-03-17T02:44:36;10.18;;;4.00;;
58954;SDS011;45815;52.334;5.024;2024-03-17T02:47:04;13.85;;;4.50;;
58954;SDS011;45815;52.334;5.024;2024-03-17T02:49:31;9.80;;;3.90;;
58954;SDS011;45815;52.334;5.024;2024-03-17T02:52:02;9.23;;;4.00;;
58954;SDS011;45815;52.334;5.024;2024-03-17T02:54:31;14.48;;;4.32;;
58954;SDS011;45815;52.334;5.024;2024-03-17T02:56:57;12.95;;;4.10;;
58954;SDS011;45815;52.334;5.024;2024-03-17T02:59:23;10.70;;;3.60;;
58954;SDS011;45815;52.334;5.024;2024-03-17T03:01:49;9.82;;;3.70;;
58954;SDS011;45815;52.334;5.024;2024-03-17T03:04:14;9.05;;;4.03;;
58954;SDS011;45815;52.334;5.024;2024-03-17T03:06:40;9.10;;;4.45;;
58954;SDS011;45815;52.334;5.024;2024-03-17T03:09:06;10.52;;;4.00;;
58954;SDS011;45815;52.334;5.024;2024-03-17T03:11:38;9.63;;;4.38;;
58954;SDS011;45815;52.334;5.024;2024-03-17T03:14:04;12.73;;;4.53;;
58954;SDS011;45815;52.334;5.024;2024-03-17T03:16:30;11.50;;;3.88;;
58954;SDS011;45815;52.334;5.024;2024-03-17T03:18:55;12.50;;;3.70;;
58954;SDS011;45815;52.334;5.024;2024-03-17T03:21:21;11.68;;;4.28;;
58954;SDS011;45815;52.334;5.024;2024-03-17T03:23:46;12.20;;;4.28;;
58954;SDS011;45815;52.334;5.024;2024-03-17T03:26:12;7.43;;;3.55;;
58954;SDS011;45815;52.334;5.024;2024-03-17T03:28:38;14.02;;;4.43;;
58954;SDS011;45815;52.334;5.024;2024-03-17T03:31:03;10.05;;;3.85;;
58954;SDS011;45815;52.334;5.024;2024-03-17T03:33:29;8.38;;;4.40;;
58954;SDS011;45815;52.334;5.024;2024-03-17T03:35:55;13.35;;;4.57;;
58954;SDS011;45815;52.334;5.024;2024-03-17T03:38:20;12.05;;;5.00;;
58954;SDS011;45815;52.334;5.024;2024-03-17T03:40:47;13.27;;;5.18;;
58954;SDS011;45815;52.334;5.024;2024-03-17T03:43:13;11.43;;;4.95;;
58954;SDS011;45815;52.334;5.024;2024-03-17T03:45:39;11.23;;;5.03;;
58954;SDS011;45815;52.334;5.024;2024-03-17T03:48:05;9.50;;;5.25;;
58954;SDS011;45815;52.334;5.024;2024-03-17T03:50:31;13.35;;;5.13;;
58954;SDS011;45815;52.334;5.024;2024-03-17T03:52:57;11.73;;;5.82;;
58954;SDS011;45815;52.334;5.024;2024-03-17T03:55:22;10.18;;;5.22;;
58954;SDS011;45815;52.334;5.024;2024-03-17T03:57:49;11.48;;;6.50;;
58954;SDS011;45815;52.334;5.024;2024-03-17T04:00:17;13.70;;;6.53;;
58954;SDS011;45815;52.334;5.024;2024-03-17T04:02:47;12.68;;;5.97;;
58954;SDS011;45815;52.334;5.024;2024-03-17T04:05:17;12.27;;;6.00;;
58954;SDS011;45815;52.334;5.024;2024-03-17T04:07:44;11.55;;;6.45;;
58954;SDS011;45815;52.334;5.024;2024-03-17T04:10:11;13.48;;;5.97;;
58954;SDS011;45815;52.334;5.024;2024-03-17T04:12:38;13.77;;;6.13;;
58954;SDS011;45815;52.334;5.024;2024-03-17T04:15:04;10.93;;;5.97;;
58954;SDS011;45815;52.334;5.024;2024-03-17T04:17:31;12.27;;;6.18;;
58954;SDS011;45815;52.334;5.024;2024-03-17T04:19:57;11.70;;;5.57;;
58954;SDS011;45815;52.334;5.024;2024-03-17T04:22:23;10.82;;;5.43;;
58954;SDS011;45815;52.334;5.024;2024-03-17T04:24:49;11.65;;;6.35;;
58954;SDS011;45815;52.334;5.024;2024-03-17T04:27:25;10.98;;;5.53;;
58954;SDS011;45815;52.334;5.024;2024-03-17T04:29:54;11.43;;;5.50;;
58954;SDS011;45815;52.334;5.024;2024-03-17T04:32:21;11.98;;;5.20;;
58954;SDS011;45815;52.334;5.024;2024-03-17T04:34:48;11.95;;;5.70;;
58954;SDS011;45815;52.334;5.024;2024-03-17T04:37:13;13.13;;;5.28;;
58954;SDS011;45815;52.334;5.024;2024-03-17T04:39:39;10.27;;;4.97;;
58954;SDS011;45815;52.334;5.024;2024-03-17T04:42:08;9.13;;;5.07;;
58954;SDS011;45815;52.334;5.024;2024-03-17T04:44:34;11.70;;;5.25;;
58954;SDS011;45815;52.334;5.024;2024-03-17T04:47:00;9.38;;;5.18;;
58954;SDS011;45815;52.334;5.024;2024-03-17T04:49:25;11.50;;;4.90;;
58954;SDS011;45815;52.334;5.024;2024-03-17T04:51:50;11.82;;;5.30;;
58954;SDS011;45815;52.334;5.024;2024-03-17T04:54:16;10.80;;;4.80;;
58954;SDS011;45815;52.334;5.024;2024-03-17T04:56:41;10.40;;;5.28;;
58954;SDS011;45815;52.334;5.024;2024-03-17T04:59:07;9.40;;;5.15;;
58954;SDS011;45815;52.334;5.024;2024-03-17T05:01:32;9.88;;;5.25;;
58954;SDS011;45815;52.334;5.024;2024-03-17T05:04:02;10.52;;;5.50;;
58954;SDS011;45815;52.334;5.024;2024-03-17T05:06:28;13.45;;;6.28;;
58954;SDS011;45815;52.334;5.024;2024-03-17T05:08:53;11.25;;;5.25;;
58954;SDS011;45815;52.334;5.024;2024-03-17T05:11:19;12.70;;;5.88;;
58954;SDS011;45815;52.334;5.024;2024-03-17T05:13:45;11.50;;;5.25;;
58954;SDS011;45815;52.334;5.024;2024-03-17T05:16:10;10.50;;;5.07;;
58954;SDS011;45815;52.334;5.024;2024-03-17T05:18:36;10.05;;;5.28;;
58954;SDS011;45815;52.334;5.024;2024-03-17T05:21:04;9.73;;;5.20;;
58954;SDS011;45815;52.334;5.024;2024-03-17T05:23:32;9.57;;;5.63;;
58954;SDS011;45815;52.334;5.024;2024-03-17T05:25:59;10.73;;;5.60;;
58954;SDS011;45815;52.334;5.024;2024-03-17T05:28:26;11.35;;;5.53;;
58954;SDS011;45815;52.334;5.024;2024-03-17T05:30:52;12.93;;;5.65;;
58954;SDS011;45815;52.334;5.024;2024-03-17T05:33:18;10.43;;;5.80;;
58954;SDS011;45815;52.334;5.024;2024-03-17T05:35:50;11.88;;;5.57;;
58954;SDS011;45815;52.334;5.024;2024-03-17T05:38:23;9.98;;;5.72;;
58954;SDS011;45815;52.334;5.024;2024-03-17T05:40:59;11.00;;;5.55;;
58954;SDS011;45815;52.334;5.024;2024-03-17T05:43:29;13.05;;;6.25;;
58954;SDS011;45815;52.334;5.024;2024-03-17T05:45:59;11.32;;;5.63;;
58954;SDS011;45815;52.334;5.024;2024-03-17T05:48:26;12.60;;;6.10;;
58954;SDS011;45815;52.334;5.024;2024-03-17T05:50:52;11.38;;;5.93;;
58954;SDS011;45815;52.334;5.024;2024-03-17T05:53:18;9.10;;;5.25;;
58954;SDS011;45815;52.334;5.024;2024-03-17T05:55:44;11.98;;;6.30;;
58954;SDS011;45815;52.334;5.024;2024-03-17T05:58:10;10.52;;;6.65;;
58954;SDS011;45815;52.334;5.024;2024-03-17T06:00:36;11.68;;;5.75;;
58954;SDS011;45815;52.334;5.024;2024-03-17T06:03:02;12.02;;;6.63;;
58954;SDS011;45815;52.334;5.024;2024-03-17T06:05:27;11.93;;;6.80;;
58954;SDS011;45815;52.334;5.024;2024-03-17T06:07:57;13.15;;;5.75;;
58954;SDS011;45815;52.334;5.024;2024-03-17T06:10:22;10.55;;;6.35;;
58954;SDS011;45815;52.334;5.024;2024-03-17T06:12:49;11.93;;;6.50;;
58954;SDS011;45815;52.334;5.024;2024-03-17T06:15:16;12.60;;;6.25;;
58954;SDS011;45815;52.334;5.024;2024-03-17T06:17:41;10.50;;;6.15;;
58954;SDS011;45815;52.334;5.024;2024-03-17T06:20:07;11.60;;;6.22;;
58954;SDS011;45815;52.334;5.024;2024-03-17T06:22:36;12.45;;;6.47;;
58954;SDS011;45815;52.334;5.024;2024-03-17T06:25:01;12.07;;;6.28;;
58954;SDS011;45815;52.334;5.024;2024-03-17T06:27:27;13.77;;;6.03;;
58954;SDS011;45815;52.334;5.024;2024-03-17T06:29:53;13.55;;;6.50;;
58954;SDS011;45815;52.334;5.024;2024-03-17T06:32:20;11.55;;;6.32;;
58954;SDS011;45815;52.334;5.024;2024-03-17T06:34:45;10.90;;;6.78;;
58954;SDS011;45815;52.334;5.024;2024-03-17T06:37:11;12.45;;;6.45;;
58954;SDS011;45815;52.334;5.024;2024-03-17T06:39:37;10.43;;;6.20;;
58954;SDS011;45815;52.334;5.024;2024-03-17T06:42:02;12.85;;;6.25;;
58954;SDS011;45815;52.334;5.024;2024-03-17T06:44:28;10.20;;;5.93;;
58954;SDS011;45815;52.334;5.024;2024-03-17T06:46:55;11.30;;;5.97;;
58954;SDS011;45815;52.334;5.024;2024-03-17T06:49:21;10.98;;;6.85;;
58954;SDS011;45815;52.334;5.024;2024-03-17T06:51:46;13.27;;;6.75;;
58954;SDS011;45815;52.334;5.024;2024-03-17T06:54:13;10.98;;;5.88;;
58954;SDS011;45815;52.334;5.024;2024-03-17T06:56:38;13.95;;;7.00;;
58954;SDS011;45815;52.334;5.024;2024-03-17T06:59:05;10.18;;;7.00;;
58954;SDS011;45815;52.334;5.024;2024-03-17T07:01:30;11.10;;;6.45;;
58954;SDS011;45815;52.334;5.024;2024-03-17T07:03:56;13.45;;;6.63;;
58954;SDS011;45815;52.334;5.024;2024-03-17T07:06:21;11.57;;;7.07;;
58954;SDS011;45815;52.334;5.024;2024-03-17T07:08:46;11.88;;;6.03;;
58954;SDS011;45815;52.334;5.024;2024-03-17T07:11:12;11.15;;;6.38;;
58954;SDS011;45815;52.334;5.024;2024-03-17T07:13:37;13.88;;;6.72;;
58954;SDS011;45815;52.334;5.024;2024-03-17T07:16:07;11.10;;;6.53;;
58954;SDS011;45815;52.334;5.024;2024-03-17T07:18:32;11.02;;;6.72;;
58954;SDS011;45815;52.334;5.024;2024-03-17T07:20:59;11.95;;;6.60;;
58954;SDS011;45815;52.334;5.024;2024-03-17T07:23:25;11.88;;;6.72;;
58954;SDS011;45815;52.334;5.024;2024-03-17T07:25:51;11.90;;;6.80;;
58954;SDS011;45815;52.334;5.024;2024-03-17T07:28:21;12.35;;;6.75;;
58954;SDS011;45815;52.334;5.024;2024-03-17T07:30:50;12.35;;;7.15;;
58954;SDS011;45815;52.334;5.024;2024-03-17T07:33:20;11.35;;;6.75;;
58954;SDS011;45815;52.334;5.024;2024-03-17T07:35:50;10.85;;;6.78;;
58954;SDS011;45815;52.334;5.024;2024-03-17T07:38:22;11.98;;;6.97;;
58954;SDS011;45815;52.334;5.024;2024-03-17T07:41:01;14.88;;;7.65;;
58954;SDS011;45815;52.334;5.024;2024-03-17T07:43:28;12.07;;;7.13;;
58954;SDS011;45815;52.334;5.024;2024-03-17T07:48:31;12.85;;;6.72;;
58954;SDS011;45815;52.334;5.024;2024-03-17T07:50:58;12.80;;;6.82;;
58954;SDS011;45815;52.334;5.024;2024-03-17T07:53:41;12.07;;;7.10;;
58954;SDS011;45815;52.334;5.024;2024-03-17T07:56:08;11.95;;;6.95;;
58954;SDS011;45815;52.334;5.024;2024-03-17T07:58:41;11.55;;;7.20;;
58954;SDS011;45815;52.334;5.024;2024-03-17T08:01:09;11.05;;;6.90;;
58954;SDS011;45815;52.334;5.024;2024-03-17T08:03:36;13.68;;;7.35;;
58954;SDS011;45815;52.334;5.024;2024-03-17T08:06:03;10.35;;;6.43;;
58954;SDS011;45815;52.334;5.024;2024-03-17T08:08:30;14.57;;;7.65;;
58954;SDS011;45815;52.334;5.024;2024-03-17T08:10:57;11.63;;;7.43;;
58954;SDS011;45815;52.334;5.024;2024-03-17T08:13:23;13.70;;;7.25;;
58954;SDS011;45815;52.334;5.024;2024-03-17T08:15:58;12.15;;;7.13;;
58954;SDS011;45815;52.334;5.024;2024-03-17T08:18:28;10.98;;;7.28;;
58954;SDS011;45815;52.334;5.024;2024-03-17T08:20:54;13.77;;;7.28;;
58954;SDS011;45815;52.334;5.024;2024-03-17T08:23:20;13.80;;;7.10;;
58954;SDS011;45815;52.334;5.024;2024-03-17T08:25:52;11.75;;;7.72;;
58954;SDS011;45815;52.334;5.024;2024-03-17T08:28:19;12.77;;;7.55;;
58954;SDS011;45815;52.334;5.024;2024-03-17T08:30:52;13.57;;;7.45;;
58954;SDS011;45815;52.334;5.024;2024-03-17T08:33:27;13.00;;;6.97;;
58954;SDS011;45815;52.334;5.024;2024-03-17T08:35:54;12.60;;;7.78;;
58954;SDS011;45815;52.334;5.024;2024-03-17T08:38:32;15.68;;;8.38;;
58954;SDS011;45815;52.334;5.024;2024-03-17T08:41:02;13.60;;;8.05;;
58954;SDS011;45815;52.334;5.024;2024-03-17T08:43:32;15.52;;;8.57;;
58954;SDS011;45815;52.334;5.024;2024-03-17T08:46:05;11.93;;;8.05;;
58954;SDS011;45815;52.334;5.024;2024-03-17T08:48:32;13.88;;;7.82;;
58954;SDS011;45815;52.334;5.024;2024-03-17T08:51:05;12.13;;;8.00;;
58954;SDS011;45815;52.334;5.024;2024-03-17T08:53:31;14.20;;;7.75;;
58954;SDS011;45815;52.334;5.024;2024-03-17T08:55:58;12.85;;;8.45;;
58954;SDS011;45815;52.334;5.024;2024-03-17T08:58:24;16.60;;;8.75;;
58954;SDS011;45815;52.334;5.024;2024-03-17T09:00:50;11.45;;;8.20;;
58954;SDS011;45815;52.334;5.024;2024-03-17T09:03:17;12.88;;;8.63;;
58954;SDS011;45815;52.334;5.024;2024-03-17T09:05:43;17.92;;;9.32;;
58954;SDS011;45815;52.334;5.024;2024-03-17T09:08:20;13.13;;;8.55;;
58954;SDS011;45815;52.334;5.024;2024-03-17T09:10:51;13.90;;;8.40;;
58954;SDS011;45815;52.334;5.024;2024-03-17T09:13:18;12.25;;;8.25;;
58954;SDS011;45815;52.334;5.024;2024-03-17T09:15:55;14.38;;;7.93;;
58954;SDS011;45815;52.334;5.024;2024-03-17T09:18:22;12.75;;;8.13;;
58954;SDS011;45815;52.334;5.024;2024-03-17T09:21:04;12.40;;;8.40;;
58954;SDS011;45815;52.334;5.024;2024-03-17T09:23:32;14.98;;;8.15;;
58954;SDS011;45815;52.334;5.024;2024-03-17T09:26:08;15.85;;;8.98;;
58954;SDS011;45815;52.334;5.024;2024-03-17T09:28:35;15.27;;;9.10;;
58954;SDS011;45815;52.334;5.024;2024-03-17T09:31:01;15.98;;;9.40;;
58954;SDS011;45815;52.334;5.024;2024-03-17T09:33:28;14.45;;;8.90;;
58954;SDS011;45815;52.334;5.024;2024-03-17T09:35:58;14.98;;;9.15;;
58954;SDS011;45815;52.334;5.024;2024-03-17T09:38:25;12.77;;;8.57;;
58954;SDS011;45815;52.334;5.024;2024-03-17T09:40:52;14.80;;;8.68;;
58954;SDS011;45815;52.334;5.024;2024-03-17T09:43:18;13.95;;;9.23;;
58954;SDS011;45815;52.334;5.024;2024-03-17T09:45:48;12.63;;;8.65;;
58954;SDS011;45815;52.334;5.024;2024-03-17T09:48:14;14.27;;;8.77;;
58954;SDS011;45815;52.334;5.024;2024-03-17T09:50:44;14.80;;;9.07;;
58954;SDS011;45815;52.334;5.024;2024-03-17T09:53:21;13.88;;;8.90;;
58954;SDS011;45815;52.334;5.024;2024-03-17T09:55:50;16.08;;;9.55;;
58954;SDS011;45815;52.334;5.024;2024-03-17T09:58:16;13.18;;;8.07;;
58954;SDS011;45815;52.334;5.024;2024-03-17T10:00:45;13.50;;;8.48;;
58954;SDS011;45815;52.334;5.024;2024-03-17T10:03:11;15.02;;;9.43;;
58954;SDS011;45815;52.334;5.024;2024-03-17T10:05:37;15.80;;;9.40;;
58954;SDS011;45815;52.334;5.024;2024-03-17T10:08:03;14.95;;;7.65;;
58954;SDS011;45815;52.334;5.024;2024-03-17T10:10:29;13.73;;;8.45;;
58954;SDS011;45815;52.334;5.024;2024-03-17T10:12:54;12.65;;;8.70;;
58954;SDS011;45815;52.334;5.024;2024-03-17T10:15:19;13.30;;;8.15;;
58954;SDS011;45815;52.334;5.024;2024-03-17T10:17:45;13.63;;;8.18;;
58954;SDS011;45815;52.334;5.024;2024-03-17T10:22:41;13.77;;;8.15;;
58954;SDS011;45815;52.334;5.024;2024-03-17T10:25:27;15.20;;;8.52;;
58954;SDS011;45815;52.334;5.024;2024-03-17T10:28:14;14.05;;;8.07;;
58954;SDS011;45815;52.334;5.024;2024-03-17T10:30:40;13.63;;;7.78;;
58954;SDS011;45815;52.334;5.024;2024-03-17T10:33:07;13.57;;;8.27;;
58954;SDS011;45815;52.334;5.024;2024-03-17T10:35:47;14.13;;;8.25;;
58954;SDS011;45815;52.334;5.024;2024-03-17T10:38:14;13.82;;;8.23;;
58954;SDS011;45815;52.334;5.024;2024-03-17T10:40:40;13.60;;;7.90;;
58954;SDS011;45815;52.334;5.024;2024-03-17T10:43:06;16.13;;;8.68;;
58954;SDS011;45815;52.334;5.024;2024-03-17T10:45:33;12.82;;;7.90;;
58954;SDS011;45815;52.334;5.024;2024-03-17T10:48:01;13.02;;;8.30;;
58954;SDS011;45815;52.334;5.024;2024-03-17T10:50:32;14.65;;;7.63;;
58954;SDS011;45815;52.334;5.024;2024-03-17T10:53:04;11.70;;;7.38;;
58954;SDS011;45815;52.334;5.024;2024-03-17T10:55:40;15.20;;;7.93;;
58954;SDS011;45815;52.334;5.024;2024-03-17T10:58:08;13.95;;;7.85;;
58954;SDS011;45815;52.334;5.024;2024-03-17T11:00:48;14.82;;;7.65;;
58954;SDS011;45815;52.334;5.024;2024-03-17T11:03:15;13.43;;;7.60;;
58954;SDS011;45815;52.334;5.024;2024-03-17T11:05:43;11.60;;;7.22;;
58954;SDS011;45815;52.334;5.024;2024-03-17T11:08:14;11.10;;;7.75;;
58954;SDS011;45815;52.334;5.024;2024-03-17T11:10:41;14.32;;;6.95;;
58954;SDS011;45815;52.334;5.024;2024-03-17T11:13:29;11.38;;;7.03;;
58954;SDS011;45815;52.334;5.024;2024-03-17T11:15:55;11.68;;;6.90;;
58954;SDS011;45815;52.334;5.024;2024-03-17T11:20:56;14.02;;;7.25;;
58954;SDS011;45815;52.334;5.024;2024-03-17T11:23:32;11.15;;;6.82;;
58954;SDS011;45815;52.334;5.024;2024-03-17T11:25:57;13.15;;;7.40;;
58954;SDS011;45815;52.334;5.024;2024-03-17T11:36:59;13.30;;;7.25;;
58954;SDS011;45815;52.334;5.024;2024-03-17T11:42:23;15.95;;;7.90;;
58954;SDS011;45815;52.334;5.024;2024-03-17T11:44:59;12.60;;;6.68;;
58954;SDS011;45815;52.334;5.024;2024-03-17T11:47:41;11.77;;;7.10;;
58954;SDS011;45815;52.334;5.024;2024-03-17T11:50:08;11.52;;;7.10;;
58954;SDS011;45815;52.334;5.024;2024-03-17T11:52:35;13.15;;;7.43;;
58954;SDS011;45815;52.334;5.024;2024-03-17T11:55:01;10.52;;;6.28;;
58954;SDS011;45815;52.334;5.024;2024-03-17T11:57:27;13.63;;;7.47;;
58954;SDS011;45815;52.334;5.024;2024-03-17T11:59:54;14.18;;;7.82;;
58954;SDS011;45815;52.334;5.024;2024-03-17T12:02:24;13.63;;;7.57;;
58954;SDS011;45815;52.334;5.024;2024-03-17T12:04:56;13.18;;;7.88;;
58954;SDS011;45815;52.334;5.024;2024-03-17T12:07:23;12.43;;;6.80;;
58954;SDS011;45815;52.334;5.024;2024-03-17T12:09:50;15.75;;;7.57;;
58954;SDS011;45815;52.334;5.024;2024-03-17T12:12:17;11.82;;;7.63;;
58954;SDS011;45815;52.334;5.024;2024-03-17T12:14:47;13.00;;;7.70;;
58954;SDS011;45815;52.334;5.024;2024-03-17T12:17:14;12.07;;;7.18;;
58954;SDS011;45815;52.334;5.024;2024-03-17T12:19:45;13.13;;;7.97;;
58954;SDS011;45815;52.334;5.024;2024-03-17T12:22:14;10.90;;;7.43;;
58954;SDS011;45815;52.334;5.024;2024-03-17T12:24:42;13.07;;;7.68;;
58954;SDS011;45815;52.334;5.024;2024-03-17T12:27:09;13.95;;;7.82;;
58954;SDS011;45815;52.334;5.024;2024-03-17T12:29:42;12.35;;;7.57;;
58954;SDS011;45815;52.334;5.024;2024-03-17T12:34:43;12.63;;;7.95;;
58954;SDS011;45815;52.334;5.024;2024-03-17T12:37:19;13.25;;;7.50;;
58954;SDS011;45815;52.334;5.024;2024-03-17T12:39:46;15.20;;;8.13;;
58954;SDS011;45815;52.334;5.024;2024-03-17T12:42:15;11.43;;;7.20;;
58954;SDS011;45815;52.334;5.024;2024-03-17T12:44:48;14.15;;;7.88;;
58954;SDS011;45815;52.334;5.024;2024-03-17T12:47:22;11.57;;;6.70;;
58954;SDS011;45815;52.334;5.024;2024-03-17T12:57:48;14.15;;;7.40;;
58954;SDS011;45815;52.334;5.024;2024-03-17T13:00:33;13.80;;;7.32;;
58954;SDS011;45815;52.334;5.024;2024-03-17T13:05:32;18.98;;;8.02;;
58954;SDS011;45815;52.334;5.024;2024-03-17T13:07:58;12.63;;;8.10;;
58954;SDS011;45815;52.334;5.024;2024-03-17T13:10:24;17.02;;;8.10;;
58954;SDS011;45815;52.334;5.024;2024-03-17T13:13:07;11.57;;;7.50;;
58954;SDS011;45815;52.334;5.024;2024-03-17T13:15:34;10.65;;;7.53;;
58954;SDS011;45815;52.334;5.024;2024-03-17T13:18:03;12.70;;;7.80;;
58954;SDS011;45815;52.334;5.024;2024-03-17T13:20:30;14.05;;;7.82;;
58954;SDS011;45815;52.334;5.024;2024-03-17T13:22:56;15.15;;;8.15;;
58954;SDS011;45815;52.334;5.024;2024-03-17T13:25:23;15.07;;;8.30;;
58954;SDS011;45815;52.334;5.024;2024-03-17T13:27:51;14.07;;;7.65;;
58954;SDS011;45815;52.334;5.024;2024-03-17T13:30:18;13.75;;;8.27;;
58954;SDS011;45815;52.334;5.024;2024-03-17T13:32:44;13.25;;;8.10;;
58954;SDS011;45815;52.334;5.024;2024-03-17T13:35:14;15.32;;;8.38;;
58954;SDS011;45815;52.334;5.024;2024-03-17T13:37:41;11.83;;;7.40;;
58954;SDS011;45815;52.334;5.024;2024-03-17T13:40:07;14.85;;;8.52;;
58954;SDS011;45815;52.334;5.024;2024-03-17T13:42:35;14.35;;;8.02;;
58954;SDS011;45815;52.334;5.024;2024-03-17T13:45:00;13.75;;;7.78;;
58954;SDS011;45815;52.334;5.024;2024-03-17T13:47:26;14.60;;;8.30;;
58954;SDS011;45815;52.334;5.024;2024-03-17T13:49:51;12.25;;;7.53;;
58954;SDS011;45815;52.334;5.024;2024-03-17T13:52:16;15.38;;;8.23;;
58954;SDS011;45815;52.334;5.024;2024-03-17T13:54:43;12.10;;;8.10;;
58954;SDS011;45815;52.334;5.024;2024-03-17T13:57:08;14.93;;;8.07;;
58954;SDS011;45815;52.334;5.024;2024-03-17T13:59:34;13.32;;;7.72;;
58954;SDS011;45815;52.334;5.024;2024-03-17T14:02:01;13.75;;;7.72;;
58954;SDS011;45815;52.334;5.024;2024-03-17T14:04:27;12.93;;;7.65;;
58954;SDS011;45815;52.334;5.024;2024-03-17T14:06:52;12.60;;;8.02;;
58954;SDS011;45815;52.334;5.024;2024-03-17T14:09:18;13.80;;;8.73;;
58954;SDS011;45815;52.334;5.024;2024-03-17T14:11:44;15.55;;;8.40;;
58954;SDS011;45815;52.334;5.024;2024-03-17T14:14:11;12.18;;;7.78;;
58954;SDS011;45815;52.334;5.024;2024-03-17T14:16:37;11.60;;;7.65;;
58954;SDS011;45815;52.334;5.024;2024-03-17T14:19:02;16.20;;;7.63;;
58954;SDS011;45815;52.334;5.024;2024-03-17T14:21:28;13.00;;;7.43;;
58954;SDS011;45815;52.334;5.024;2024-03-17T14:23:54;11.77;;;7.13;;
58954;SDS011;45815;52.334;5.024;2024-03-17T14:26:20;11.15;;;7.45;;
58954;SDS011;45815;52.334;5.024;2024-03-17T14:28:46;12.57;;;7.38;;
58954;SDS011;45815;52.334;5.024;2024-03-17T14:31:12;16.58;;;7.50;;
58954;SDS011;45815;52.334;5.024;2024-03-17T14:33:37;11.18;;;7.68;;
58954;SDS011;45815;52.334;5.024;2024-03-17T14:36:02;13.00;;;6.60;;
58954;SDS011;45815;52.334;5.024;2024-03-17T14:38:28;12.60;;;7.20;;
58954;SDS011;45815;52.334;5.024;2024-03-17T14:40:54;13.35;;;7.00;;
58954;SDS011;45815;52.334;5.024;2024-03-17T14:43:19;13.13;;;7.05;;
58954;SDS011;45815;52.334;5.024;2024-03-17T14:45:45;17.23;;;7.60;;
58954;SDS011;45815;52.334;5.024;2024-03-17T14:48:11;14.52;;;7.07;;
58954;SDS011;45815;52.334;5.024;2024-03-17T14:50:38;13.90;;;6.85;;
58954;SDS011;45815;52.334;5.024;2024-03-17T14:53:04;13.60;;;7.30;;
58954;SDS011;45815;52.334;5.024;2024-03-17T14:55:30;12.80;;;7.00;;
58954;SDS011;45815;52.334;5.024;2024-03-17T14:57:56;12.73;;;7.00;;
58954;SDS011;45815;52.334;5.024;2024-03-17T15:00:21;15.40;;;6.57;;
58954;SDS011;45815;52.334;5.024;2024-03-17T15:02:50;20.50;;;8.02;;
58954;SDS011;45815;52.334;5.024;2024-03-17T15:05:17;11.90;;;6.75;;
58954;SDS011;45815;52.334;5.024;2024-03-17T15:07:47;13.55;;;8.00;;
58954;SDS011;45815;52.334;5.024;2024-03-17T15:10:13;12.15;;;7.15;;